Time;durP1;ratioP1;P1;durP2;ratioP2;P2;SDS_P1;SDS_P2;PMS_P1;PMS_P2;Temp;Humidity;BMP_temperature;BMP_pressure;BME280_temperature;BME280_humidity;BME280_pressure;Samples;Min_cycle;Max_cycle;Signal;HPM_P1;HPM_P2
2022/05/05 00:01:12;;;;;;;22.48;11.55;;;14.20;99.90;;;;;;5075201;28;20453;-68
2022/05/05 00:03:38;;;;;;;20.75;12.80;;;14.20;99.90;;;;;;5075185;28;20565;-68
2022/05/05 00:06:04;;;;;;;17.02;11.60;;;14.20;99.90;;;;;;5093348;28;20126;-67
2022/05/05 00:08:30;;;;;;;18.23;12.02;;;14.10;99.90;;;;;;5075160;28;20453;-67
2022/05/05 00:16:27;;;;;;;23.27;12.10;;;14.20;99.90;;;;;;5093017;28;20066;-67
2022/05/05 00:18:53;;;;;;;22.02;11.88;;;14.10;99.90;;;;;;5092959;28;20069;-67
2022/05/05 00:21:19;;;;;;;19.05;14.07;;;14.10;99.90;;;;;;5093106;28;20381;-67
2022/05/05 00:23:44;;;;;;;21.88;14.43;;;14.00;99.90;;;;;;5093061;28;20089;-67
2022/05/05 00:26:10;;;;;;;25.95;14.13;;;14.00;99.90;;;;;;5092668;28;20106;-69
2022/05/05 00:28:36;;;;;;;19.58;13.80;;;13.90;99.90;;;;;;5093072;28;20058;-68
2022/05/05 00:31:02;;;;;;;26.48;14.98;;;13.90;99.90;;;;;;5093037;28;20040;-67
2022/05/05 00:33:27;;;;;;;21.08;14.55;;;13.80;99.90;;;;;;5093344;28;20387;-68
2022/05/05 00:35:53;;;;;;;23.38;13.57;;;13.80;99.90;;;;;;5093277;28;20035;-67
2022/05/05 00:38:19;;;;;;;20.40;13.10;;;13.80;99.90;;;;;;5093002;28;20031;-66
2022/05/05 00:40:45;;;;;;;19.50;13.73;;;13.80;99.90;;;;;;5074504;28;20028;-67
2022/05/05 00:43:11;;;;;;;24.88;13.60;;;13.80;99.90;;;;;;5092860;28;20040;-68
2022/05/05 00:45:37;;;;;;;21.20;13.25;;;13.70;99.90;;;;;;5095697;28;20031;-68
2022/05/05 00:48:08;;;;;;;19.17;12.85;;;13.70;99.90;;;;;;5097018;28;20032;-67
2022/05/05 00:50:35;;;;;;;24.60;14.17;;;13.90;99.90;;;;;;5096980;28;20158;-67
2022/05/05 00:53:02;;;;;;;16.70;12.90;;;13.70;99.90;;;;;;5096988;28;20031;-67
2022/05/05 00:55:32;;;;;;;22.17;13.52;;;13.60;99.90;;;;;;5096918;28;20479;-69
2022/05/05 00:57:59;;;;;;;20.00;13.80;;;13.60;99.90;;;;;;5096864;28;20024;-68
2022/05/05 01:00:25;;;;;;;17.10;13.05;;;13.50;99.90;;;;;;5078718;28;20379;-69
2022/05/05 01:02:52;;;;;;;24.08;14.90;;;13.40;99.90;;;;;;5096682;28;20123;-67
2022/05/05 01:05:18;;;;;;;17.98;14.32;;;13.30;99.90;;;;;;5096452;28;20353;-68
2022/05/05 01:07:44;;;;;;;19.58;14.02;;;13.20;99.90;;;;;;5096909;28;20035;-68
2022/05/05 01:10:10;;;;;;;20.40;12.93;;;13.20;99.90;;;;;;5078443;28;20055;-67
2022/05/05 01:12:36;;;;;;;20.40;12.45;;;13.20;99.90;;;;;;5096825;28;20028;-68
2022/05/05 01:15:03;;;;;;;19.15;13.45;;;13.10;99.90;;;;;;5096540;28;20111;-68
2022/05/05 01:17:29;;;;;;;18.58;12.10;;;13.10;99.90;;;;;;5096339;28;20103;-68
2022/05/05 01:19:54;;;;;;;17.80;12.30;;;13.00;99.90;;;;;;5096526;28;20024;-69
2022/05/05 01:22:20;;;;;;;21.67;13.18;;;12.90;99.90;;;;;;5078112;28;20127;-70
2022/05/05 01:30:15;;;;;;;20.48;13.88;;;;;;;;;;5096323;28;20055;-69
2022/05/05 01:32:41;;;;;;;24.42;14.65;;;12.70;99.90;;;;;;5096179;28;20024;-69
2022/05/05 01:35:07;;;;;;;20.40;13.60;;;12.50;99.90;;;;;;5077873;28;20080;-68
2022/05/05 01:37:33;;;;;;;17.50;12.48;;;12.70;99.90;;;;;;5077899;28;20032;-68
2022/05/05 01:39:59;;;;;;;22.48;13.45;;;12.50;99.90;;;;;;5096085;28;20085;-69
2022/05/05 01:42:25;;;;;;;16.08;12.10;;;12.40;99.90;;;;;;5077694;28;20040;-70
2022/05/05 01:44:51;;;;;;;18.83;12.75;;;12.40;99.90;;;;;;5095968;28;20027;-68
2022/05/05 01:47:17;;;;;;;20.25;12.85;;;12.40;99.90;;;;;;5095896;28;20056;-70
2022/05/05 01:49:45;;;;;;;20.33;11.65;;;12.50;99.90;;;;;;5095928;28;20052;-68
2022/05/05 01:52:11;;;;;;;20.42;12.80;;;12.50;99.90;;;;;;5095893;28;20451;-69
2022/05/05 01:54:38;;;;;;;17.85;12.57;;;12.40;99.90;;;;;;5077601;28;20024;-69
2022/05/05 01:57:05;;;;;;;21.42;12.90;;;12.40;99.90;;;;;;5095065;28;20198;-70
2022/05/05 01:59:34;;;;;;;22.35;14.45;;;12.40;99.90;;;;;;5077595;28;20028;-68
2022/05/05 02:01:59;;;;;;;27.50;17.45;;;12.30;99.90;;;;;;5095575;28;20032;-68
2022/05/05 02:04:25;;;;;;;24.83;15.15;;;;;;;;;;5095608;28;20032;-68
2022/05/05 02:06:51;;;;;;;25.05;15.57;;;12.10;99.90;;;;;;5095560;28;20020;-68
2022/05/05 02:09:17;;;;;;;30.27;16.05;;;11.80;99.90;;;;;;5077393;28;20385;-68
2022/05/05 02:11:43;;;;;;;38.03;17.38;;;11.80;99.90;;;;;;5095421;28;20463;-69
2022/05/05 02:14:09;;;;;;;26.13;17.92;;;11.80;99.90;;;;;;5095404;28;20453;-69
2022/05/05 02:16:35;;;;;;;26.75;16.83;;;;;;;;;;5077190;28;20036;-68
2022/05/05 02:19:01;;;;;;;26.20;16.90;;;;;;;;;;5095330;28;20024;-69
2022/05/05 02:21:27;;;;;;;28.25;16.45;;;;;;;;;;5095300;28;20025;-68
2022/05/05 02:23:53;;;;;;;23.83;16.75;;;;;;;;;;5095209;28;20507;-68
2022/05/05 02:26:19;;;;;;;30.38;18.38;;;;;;;;;;5073263;28;20144;-69
2022/05/05 02:28:49;;;;;;;35.38;17.98;;;;;;;;;;5073629;28;20066;-68
2022/05/05 02:31:15;;;;;;;25.85;17.38;;;;;;;;;;5073655;28;20532;-68
2022/05/05 02:33:41;;;;;;;27.40;18.90;;;11.80;99.90;;;;;;5073485;28;20503;-68
2022/05/05 02:38:52;;;;;;;33.00;15.75;;;11.60;99.90;;;;;;5074511;28;20035;-68
2022/05/05 02:41:17;;;;;;;26.83;17.33;;;11.60;99.90;;;;;;5074743;28;20024;-68
2022/05/05 02:43:43;;;;;;;26.48;15.85;;;11.70;99.90;;;;;;5073246;28;20124;-68
2022/05/05 02:46:09;;;;;;;32.63;17.25;;;11.70;99.90;;;;;;5073302;28;20028;-67
2022/05/05 02:48:36;;;;;;;24.38;15.73;;;11.70;99.90;;;;;;5073264;28;20025;-68
2022/05/05 02:51:02;;;;;;;21.35;15.73;;;11.70;99.90;;;;;;5074549;28;20029;-68
2022/05/05 02:56:12;;;;;;;30.88;16.15;;;11.70;99.90;;;;;;5074373;28;20035;-67
2022/05/05 02:58:38;;;;;;;29.45;17.95;;;11.60;99.90;;;;;;5074368;28;20032;-68
2022/05/05 03:01:04;;;;;;;26.23;17.85;;;;;;;;;;5073041;28;20107;-67
2022/05/05 03:03:30;;;;;;;26.73;16.55;;;;;;;;;;5074160;28;20028;-66
2022/05/05 03:05:56;;;;;;;27.65;17.73;;;;;;;;;;5073937;28;20495;-68
2022/05/05 03:08:22;;;;;;;31.25;18.33;;;;;;;;;;5072102;28;20419;-69
2022/05/05 03:10:48;;;;;;;27.50;17.40;;;;;;;;;;5073874;28;20028;-69
2022/05/05 03:13:15;;;;;;;25.08;16.80;;;;;;;;;;5074043;28;20063;-69
2022/05/05 03:15:41;;;;;;;23.75;16.25;;;;;;;;;;5072688;28;20027;-69
2022/05/05 03:18:07;;;;;;;22.08;16.35;;;;;;;;;;5073919;28;20102;-69
2022/05/05 03:20:34;;;;;;;27.17;16.50;;;;;;;;;;5074260;28;20024;-69
2022/05/05 03:23:00;;;;;;;26.20;16.50;;;;;;;;;;5073804;28;20036;-69
2022/05/05 03:25:26;;;;;;;36.00;17.65;;;;;;;;;;5076897;28;20052;-70
2022/05/05 03:27:52;;;;;;;32.17;17.73;;;;;;;;;;5094020;28;20031;-69
2022/05/05 03:30:18;;;;;;;26.73;16.80;;;;;;;;;;5075798;28;20056;-68
2022/05/05 03:32:45;;;;;;;29.30;16.80;;;;;;;;;;5075753;28;20101;-68
2022/05/05 03:35:11;;;;;;;25.40;16.50;;;;;;;;;;5094190;28;20085;-67
2022/05/05 03:37:37;;;;;;;29.17;18.85;;;;;;;;;;5093831;28;20449;-67
2022/05/05 03:40:04;;;;;;;25.42;16.25;;;;;;;;;;5094109;28;20039;-68
2022/05/05 03:42:30;;;;;;;32.70;16.33;;;;;;;;;;5075423;28;20036;-67
2022/05/05 03:44:56;;;;;;;30.48;16.42;;;;;;;;;;5093719;28;20032;-68
2022/05/05 03:47:22;;;;;;;21.95;15.40;;;;;;;;;;5093657;28;20032;-68
2022/05/05 03:49:48;;;;;;;27.02;15.38;;;;;;;;;;5093917;28;20024;-67
2022/05/05 03:52:14;;;;;;;30.65;16.17;;;11.60;99.90;;;;;;5093635;28;20134;-68
2022/05/05 03:54:41;;;;;;;21.80;17.30;;;11.60;99.90;;;;;;5075282;28;20115;-67
2022/05/05 03:57:08;;;;;;;29.25;18.67;;;11.50;99.90;;;;;;5075274;28;20024;-67
2022/05/05 03:59:34;;;;;;;30.88;18.65;;;11.40;99.90;;;;;;5093472;28;20354;-67
2022/05/05 04:02:00;;;;;;;32.42;16.55;;;11.30;99.90;;;;;;5075119;28;20039;-67
2022/05/05 04:04:26;;;;;;;34.03;17.73;;;11.10;99.90;;;;;;5093389;28;20035;-67
2022/05/05 04:06:52;;;;;;;30.90;18.02;;;11.10;99.90;;;;;;5093364;28;20020;-68
2022/05/05 04:09:18;;;;;;;32.85;18.80;;;11.10;99.90;;;;;;5093096;28;20036;-68
2022/05/05 04:11:44;;;;;;;24.52;17.65;;;11.10;99.90;;;;;;5093649;28;20461;-67
2022/05/05 04:14:10;;;;;;;31.75;18.67;;;11.10;99.90;;;;;;5074746;28;20369;-67
2022/05/05 04:16:36;;;;;;;35.85;19.27;;;11.20;99.90;;;;;;5093228;28;20024;-66
2022/05/05 04:19:03;;;;;;;37.00;19.83;;;11.20;99.90;;;;;;5074678;28;20025;-67
2022/05/05 04:21:30;;;;;;;42.33;19.83;;;11.20;99.90;;;;;;5093539;28;20056;-67
2022/05/05 04:23:56;;;;;;;33.50;19.85;;;11.20;99.90;;;;;;5093035;28;20047;-67
2022/05/05 04:26:24;;;;;;;39.80;21.77;;;11.30;99.90;;;;;;5074751;28;20051;-67
2022/05/05 04:28:50;;;;;;;41.97;20.95;;;11.40;99.90;;;;;;5093098;28;20020;-67
2022/05/05 04:31:19;;;;;;;41.65;21.45;;;11.40;99.90;;;;;;5093406;28;20036;-69
2022/05/05 04:33:45;;;;;;;39.33;20.77;;;11.50;99.90;;;;;;5093026;28;20028;-69
2022/05/05 04:36:12;;;;;;;37.63;20.80;;;11.60;99.90;;;;;;5093049;28;20069;-68
2022/05/05 04:38:38;;;;;;;31.63;20.55;;;;;;;;;;5093032;28;20020;-68
2022/05/05 04:41:04;;;;;;;31.25;20.20;;;11.60;99.90;;;;;;5093144;28;20020;-68
2022/05/05 04:43:30;;;;;;;27.05;19.10;;;11.70;99.90;;;;;;5093021;28;20036;-66
2022/05/05 04:45:57;;;;;;;27.50;19.02;;;;;;;;;;5074797;28;20119;-66
2022/05/05 04:48:23;;;;;;;34.38;19.88;;;11.80;99.90;;;;;;5092922;28;20027;-67
2022/05/05 04:50:49;;;;;;;35.95;19.90;;;11.80;99.90;;;;;;5092985;28;20032;-68
2022/05/05 04:53:15;;;;;;;33.17;19.23;;;11.80;99.90;;;;;;5093016;28;20046;-68
2022/05/05 04:59:03;;;;;;;29.92;19.95;;;11.80;99.90;;;;;;5089710;28;20132;-68
2022/05/05 05:01:28;;;;;;;34.25;19.58;;;11.90;99.90;;;;;;5092788;28;20028;-66
2022/05/05 05:03:54;;;;;;;29.52;17.85;;;12.00;99.90;;;;;;5092667;28;20032;-67
2022/05/05 05:06:20;;;;;;;29.83;18.35;;;;;;;;;;5074888;28;20484;-68
2022/05/05 05:08:47;;;;;;;36.53;18.90;;;12.10;99.90;;;;;;5092756;28;20056;-69
2022/05/05 05:11:13;;;;;;;25.48;19.02;;;12.30;99.90;;;;;;5092739;28;20024;-68
2022/05/05 05:13:38;;;;;;;33.15;19.13;;;12.40;99.90;;;;;;5074494;28;20035;-69
2022/05/05 05:16:05;;;;;;;31.05;19.38;;;;;;;;;;5089874;28;20035;-68
2022/05/05 05:18:30;;;;;;;30.17;19.55;;;12.40;99.90;;;;;;5094146;28;20024;-68
2022/05/05 05:20:57;;;;;;;33.22;20.92;;;12.60;99.90;;;;;;5112330;28;20077;-68
2022/05/05 05:23:22;;;;;;;33.28;20.60;;;12.70;99.90;;;;;;5112551;28;20042;-68
2022/05/05 05:25:48;;;;;;;34.97;20.88;;;12.80;99.90;;;;;;5112308;28;20051;-67
2022/05/05 05:28:15;;;;;;;32.10;20.02;;;13.00;99.90;;;;;;5112469;28;20020;-68
2022/05/05 05:30:41;;;;;;;39.83;21.45;;;13.00;99.90;;;;;;5112607;28;20088;-66
2022/05/05 05:33:07;;;;;;;50.45;21.30;;;13.10;99.90;;;;;;5115781;28;20027;-66
2022/05/05 05:35:33;;;;;;;35.35;20.42;;;13.20;99.90;;;;;;5116626;28;20505;-67
2022/05/05 05:37:59;;;;;;;32.17;21.52;;;;;;;;;;5116357;28;20085;-67
2022/05/05 05:40:25;;;;;;;40.45;21.40;;;13.30;99.90;;;;;;5116038;28;20073;-67
2022/05/05 05:42:52;;;;;;;33.95;22.90;;;13.50;99.90;;;;;;5116254;28;20044;-67
2022/05/05 05:45:18;;;;;;;28.30;21.38;;;13.60;99.90;;;;;;5116141;28;20042;-66
2022/05/05 05:47:45;;;;;;;34.20;21.27;;;13.70;99.90;;;;;;5097717;28;20068;-67
2022/05/05 05:50:11;;;;;;;43.47;21.40;;;13.80;99.90;;;;;;5116178;28;20431;-66
2022/05/05 05:52:36;;;;;;;35.83;23.50;;;13.90;99.90;;;;;;5116028;28;20031;-67
2022/05/05 05:55:02;;;;;;;41.97;27.58;;;13.90;99.90;;;;;;5115867;28;20019;-66
2022/05/05 05:57:28;;;;;;;41.40;29.33;;;14.00;99.90;;;;;;5115923;28;20023;-67
2022/05/05 05:59:54;;;;;;;45.00;30.42;;;14.00;99.90;;;;;;5097582;28;20034;-67
2022/05/05 06:05:06;;;;;;;48.88;27.38;;;14.20;99.90;;;;;;5115757;28;20114;-66
2022/05/05 06:07:32;;;;;;;40.80;26.65;;;14.30;99.90;;;;;;5097533;28;20063;-66
2022/05/05 06:09:58;;;;;;;44.33;27.95;;;14.30;99.90;;;;;;5115877;28;20462;-66
2022/05/05 06:12:24;;;;;;;42.08;27.60;;;14.40;99.90;;;;;;5115873;28;20138;-66
2022/05/05 06:14:50;;;;;;;39.35;27.35;;;14.50;99.90;;;;;;5109494;28;20354;-66
2022/05/05 06:17:15;;;;;;;44.63;26.02;;;14.50;99.90;;;;;;5106523;28;20035;-66
2022/05/05 06:19:43;;;;;;;47.13;28.08;;;14.60;99.90;;;;;;5115608;28;20414;-66
2022/05/05 06:22:09;;;;;;;36.58;27.60;;;14.70;99.90;;;;;;5115594;28;20043;-66
2022/05/05 06:24:35;;;;;;;38.70;27.77;;;14.70;99.90;;;;;;5115695;28;20031;-72
2022/05/05 06:27:01;;;;;;;44.05;28.13;;;14.80;99.90;;;;;;5107158;28;20052;-69
2022/05/05 06:29:30;;;;;;;35.83;24.75;;;15.00;99.90;;;;;;5076883;28;20384;-71
2022/05/05 06:31:55;;;;;;;34.63;24.15;;;15.10;99.90;;;;;;5076614;28;20081;-67
2022/05/05 06:34:21;;;;;;;38.58;25.02;;;15.20;99.90;;;;;;5094923;28;20411;-67
2022/05/05 06:36:47;;;;;;;44.97;25.23;;;15.40;99.90;;;;;;5096024;28;20492;-72
2022/05/05 06:39:14;;;;;;;45.53;24.75;;;;;;;;;;5113860;28;20031;-70
2022/05/05 06:41:40;;;;;;;43.47;23.85;;;;;;;;;;5112726;28;20031;-66
2022/05/05 06:44:06;;;;;;;38.75;24.10;;;15.50;99.90;;;;;;5113487;28;20047;-69
2022/05/05 06:46:33;;;;;;;42.45;23.73;;;15.80;99.90;;;;;;5115106;28;20024;-67
2022/05/05 06:48:59;;;;;;;33.78;21.05;;;16.00;99.90;;;;;;5114987;28;20463;-67
2022/05/05 06:51:25;;;;;;;31.05;20.65;;;16.10;99.90;;;;;;5103232;28;20063;-69
2022/05/05 06:53:51;;;;;;;29.27;20.75;;;16.20;99.90;;;;;;5094606;28;20460;-72
2022/05/05 06:56:17;;;;;;;37.17;21.42;;;16.40;99.90;;;;;;5094465;28;20020;-71
2022/05/05 06:58:42;;;;;;;37.85;21.35;;;16.60;99.90;;;;;;5094502;28;20032;-72
2022/05/05 07:05:23;;;;;;;42.10;23.40;;;;;;;;;;5094008;28;20043;-70
2022/05/05 07:06:38;;;;;;;39.80;23.02;;;16.70;99.90;;;;;;5093950;28;20032;-69
2022/05/05 07:11:49;;;;;;;44.25;24.77;;;17.10;99.90;;;;;;5094247;28;20039;-72
2022/05/05 07:14:15;;;;;;;39.05;25.45;;;17.30;99.90;;;;;;5094176;28;20024;-71
2022/05/05 07:16:41;;;;;;;47.22;28.05;;;17.50;99.90;;;;;;5094127;28;20028;-69
2022/05/05 07:19:10;;;;;;;40.47;27.17;;;17.50;99.90;;;;;;5075386;28;20398;-69
2022/05/05 07:21:37;;;;;;;38.45;23.98;;;17.70;99.90;;;;;;5093951;28;20161;-69
2022/05/05 07:24:04;;;;;;;39.78;24.95;;;17.80;99.90;;;;;;5093638;28;20035;-70
2022/05/05 07:26:30;;;;;;;36.40;22.92;;;;;;;;;;5093931;28;20515;-69
2022/05/05 07:28:56;;;;;;;34.97;22.83;;;18.10;99.90;;;;;;5093857;28;20024;-70
2022/05/05 07:31:22;;;;;;;40.00;22.10;;;18.30;99.90;;;;;;5093711;28;20027;-72
2022/05/05 07:33:48;;;;;;;31.92;20.15;;;18.40;99.90;;;;;;5093831;28;20032;-70
2022/05/05 07:36:14;;;;;;;28.45;19.67;;;18.50;99.90;;;;;;5093650;28;20518;-70
2022/05/05 07:38:40;;;;;;;29.88;19.92;;;18.60;99.90;;;;;;5075444;28;20073;-69
2022/05/05 07:41:06;;;;;;;34.33;19.35;;;18.80;99.90;;;;;;5075283;28;20110;-71
2022/05/05 07:43:32;;;;;;;33.20;19.73;;;18.90;99.90;;;;;;5093363;28;20508;-70
2022/05/05 07:45:58;;;;;;;31.55;19.20;;;19.00;99.90;;;;;;5093450;28;20028;-71
2022/05/05 07:48:24;;;;;;;30.08;19.00;;;19.20;99.90;;;;;;5093387;28;20427;-71
2022/05/05 07:50:49;;;;;;;30.52;19.17;;;19.40;99.90;;;;;;5093442;28;20024;-70
2022/05/05 07:53:16;;;;;;;34.83;18.88;;;19.40;99.90;;;;;;5075168;28;20077;-70
2022/05/05 07:55:42;;;;;;;28.08;17.02;;;19.60;99.90;;;;;;5092765;28;20082;-70
2022/05/05 07:58:08;;;;;;;24.10;17.55;;;19.70;99.90;;;;;;5074628;28;20430;-71
2022/05/05 08:00:34;;;;;;;31.88;16.75;;;;;;;;;;5093210;28;20119;-70
2022/05/05 08:03:00;;;;;;;30.13;16.83;;;19.90;99.90;;;;;;5093217;28;20028;-71
2022/05/05 08:05:25;;;;;;;23.25;15.20;;;20.20;99.90;;;;;;5093448;28;20380;-71
2022/05/05 08:07:51;;;;;;;32.38;16.17;;;20.30;99.90;;;;;;5093257;28;20144;-70
2022/05/05 08:10:18;;;;;;;22.90;13.45;;;;;;;;;;5093153;28;20024;-70
2022/05/05 08:12:48;;;;;;;32.47;15.68;;;20.50;99.90;;;;;;5093192;28;20074;-70
2022/05/05 08:15:17;;;;;;;29.08;16.05;;;20.70;99.90;;;;;;5074931;28;20019;-71
2022/05/05 08:17:45;;;;;;;26.05;15.40;;;21.00;99.90;;;;;;5092892;28;20381;-69
2022/05/05 08:20:11;;;;;;;19.35;13.75;;;21.00;99.90;;;;;;5093107;28;20349;-72
2022/05/05 08:22:38;;;;;;;34.03;13.52;;;21.20;99.90;;;;;;5093096;28;20170;-72
2022/05/05 08:30:33;;;;;;;34.28;12.38;;;21.70;99.90;;;;;;5093137;28;20043;-72
2022/05/05 08:32:59;;;;;;;30.88;11.98;;;21.80;98.80;;;;;;5092895;28;20036;-72
2022/05/05 08:35:27;;;;;;;22.77;11.45;;;22.10;98.70;;;;;;5091375;28;20024;-70
2022/05/05 08:37:56;;;;;;;20.65;11.48;;;22.10;98.50;;;;;;5092765;28;20025;-73
2022/05/05 08:40:24;;;;;;;23.38;10.85;;;22.10;94.40;;;;;;5074744;28;20129;-72
2022/05/05 08:42:50;;;;;;;16.98;10.52;;;22.20;94.80;;;;;;5092704;28;20036;-73
2022/05/05 08:45:16;;;;;;;18.52;9.93;;;;;;;;;;5090710;28;20035;-72
2022/05/05 08:47:45;;;;;;;22.10;9.35;;;22.50;93.60;;;;;;5095444;28;20028;-70
2022/05/05 08:50:11;;;;;;;17.33;9.10;;;22.60;92.30;;;;;;5074571;28;20028;-71
2022/05/05 08:52:48;;;;;;;23.98;8.95;;;22.70;91.30;;;;;;5074618;28;20040;-67
2022/05/05 08:55:15;;;;;;;21.77;9.15;;;22.90;92.50;;;;;;5092739;28;20528;-70
2022/05/05 08:57:42;;;;;;;14.38;7.50;;;23.10;92.00;;;;;;5092608;28;20028;-72
2022/05/05 09:00:10;;;;;;;14.93;7.82;;;;;;;;;;5092613;28;20031;-71
2022/05/05 09:02:36;;;;;;;14.70;7.88;;;23.30;88.40;;;;;;5097180;28;20035;-69
2022/05/05 09:05:03;;;;;;;11.88;7.95;;;23.70;84.90;;;;;;5080951;28;20031;-71
2022/05/05 09:07:52;;;;;;;14.25;8.27;;;23.60;84.20;;;;;;5094325;28;20024;-70
2022/05/05 09:10:20;;;;;;;13.40;8.65;;;23.80;82.30;;;;;;5096567;28;20025;-71
2022/05/05 09:12:59;;;;;;;17.10;8.95;;;23.80;80.40;;;;;;5096528;28;20024;-71
2022/05/05 09:15:34;;;;;;;15.82;8.70;;;24.00;83.10;;;;;;5077944;28;20035;-71
2022/05/05 09:18:14;;;;;;;16.65;7.78;;;24.10;79.60;;;;;;5078257;28;20047;-75
2022/05/05 09:20:41;;;;;;;13.98;8.02;;;24.40;79.20;;;;;;5096374;28;20035;-74
2022/05/05 09:23:07;;;;;;;13.98;8.25;;;;;;;;;;5096188;28;20036;-74
2022/05/05 09:25:49;;;;;;;18.67;7.82;;;24.50;79.70;;;;;;5095865;28;20392;-73
2022/05/05 09:28:22;;;;;;;13.90;7.45;;;24.90;77.10;;;;;;5096136;28;20467;-74
2022/05/05 09:30:49;;;;;;;24.17;8.35;;;25.00;79.80;;;;;;5077839;28;20046;-73
2022/05/05 09:33:35;;;;;;;21.65;6.53;;;25.20;79.60;;;;;;5096039;28;20028;-73
2022/05/05 09:36:06;;;;;;;16.58;6.10;;;25.50;75.00;;;;;;5093612;28;20028;-72
2022/05/05 09:38:48;;;;;;;7.28;4.07;;;25.60;74.20;;;;;;5098024;28;20173;-68
2022/05/05 09:41:14;;;;;;;8.18;4.13;;;25.80;71.60;;;;;;5116196;28;20060;-70
2022/05/05 09:43:39;;;;;;;9.00;4.03;;;26.00;70.90;;;;;;5097910;28;20500;-67
2022/05/05 09:46:25;;;;;;;11.70;4.28;;;26.10;71.00;;;;;;5115985;28;20035;-67
2022/05/05 09:49:07;;;;;;;25.55;5.22;;;26.30;69.80;;;;;;5115242;28;20031;-67
2022/05/05 09:51:41;;;;;;;8.70;4.75;;;26.50;69.90;;;;;;5116222;28;20369;-67
2022/05/05 09:59:46;;;;;;;8.85;4.13;;;26.90;71.30;;;;;;5115951;28;20491;-68
2022/05/05 10:04:00;;;;;;;8.23;4.13;;;26.80;69.40;;;;;;5115087;28;20068;-67
2022/05/05 10:05:08;;;;;;;8.30;3.58;;;26.80;65.50;;;;;;5115374;28;20032;-67
2022/05/05 10:07:38;;;;;;;7.22;3.63;;;26.90;68.50;;;;;;5115907;28;20380;-67
2022/05/05 10:10:06;;;;;;;8.43;3.47;;;27.10;68.00;;;;;;5115847;28;20036;-67
2022/05/05 10:12:34;;;;;;;11.60;5.20;;;;;;;;;;5115414;28;20043;-67
2022/05/05 10:15:00;;;;;;;5.57;4.30;;;27.30;64.30;;;;;;5097316;28;20032;-67
2022/05/05 10:17:27;;;;;;;9.88;4.35;;;;;;;;;;5115132;28;20023;-67
2022/05/05 10:19:53;;;;;;;8.88;4.65;;;;;;;;;;5115620;28;20475;-67
2022/05/05 10:22:31;;;;;;;11.43;3.17;;;27.60;68.40;;;;;;5115449;28;20030;-66
2022/05/05 10:25:09;;;;;;;5.32;3.58;;;28.20;63.50;;;;;;5115717;28;20019;-67
2022/05/05 10:27:44;;;;;;;15.95;3.55;;;28.80;62.90;;;;;;5115553;28;20373;-66
2022/05/05 10:30:15;;;;;;;7.22;3.70;;;29.00;65.20;;;;;;5115403;28;20039;-66
2022/05/05 10:32:41;;;;;;;;;;;29.60;64.60;;;;;;5115741;28;20488;-66
2022/05/05 10:35:08;;;;;;;6.07;3.17;;;30.50;60.30;;;;;;5115048;28;19904;-67
2022/05/05 10:37:38;;;;;;;33.50;4.85;;;31.10;59.70;;;;;;5096803;28;20020;-67
2022/05/05 10:40:06;;;;;;;4.35;2.85;;;31.90;57.90;;;;;;5115335;28;20026;-67
2022/05/05 10:42:41;;;;;;;8.88;3.20;;;32.10;56.40;;;;;;5114678;28;20483;-69
2022/05/05 10:45:15;;;;;;;87.78;7.47;;;32.70;55.70;;;;;;5096452;28;20028;-67
2022/05/05 10:48:04;;;;;;;8.05;2.97;;;33.30;54.10;;;;;;5096866;28;20768;-67
2022/05/05 10:50:33;;;;;;;5.70;2.95;;;33.50;53.30;;;;;;5082846;28;20097;-65
2022/05/05 10:53:00;;;;;;;8.68;3.67;;;33.60;53.90;;;;;;5103005;28;20043;-64
2022/05/05 10:55:34;;;;;;;3.22;2.58;;;34.10;52.20;;;;;;5114739;28;20360;-65
2022/05/05 10:58:00;;;;;;;10.63;2.67;;;34.70;49.40;;;;;;5114871;28;20111;-68
2022/05/05 11:00:41;;;;;;;5.85;3.15;;;34.70;47.90;;;;;;5113610;28;20465;-67
2022/05/05 11:03:07;;;;;;;7.13;2.58;;;34.80;49.00;;;;;;5114616;28;20104;-67
2022/05/05 11:05:37;;;;;;;4.22;2.55;;;35.20;50.10;;;;;;5114842;28;20080;-67
2022/05/05 11:08:07;;;;;;;5.15;2.97;;;35.70;48.10;;;;;;5114803;28;20539;-67
2022/05/05 11:10:48;;;;;;;7.37;2.77;;;36.10;48.40;;;;;;5114147;28;20027;-67
2022/05/05 11:13:36;;;;;;;29.13;5.80;;;36.40;47.30;;;;;;5112962;28;20031;-67
2022/05/05 11:22:09;;;;;;;5.03;2.88;;;36.60;45.70;;;;;;5114336;28;20034;-66
2022/05/05 11:24:36;;;;;;;6.63;2.70;;;37.00;45.70;;;;;;5114471;28;20023;-66
2022/05/05 11:27:02;;;;;;;6.80;2.83;;;37.20;45.80;;;;;;5111747;28;20126;-66
2022/05/05 11:29:32;;;;;;;4.13;2.50;;;37.80;44.00;;;;;;5113294;28;20031;-66
2022/05/05 11:32:05;;;;;;;16.25;2.97;;;38.00;43.80;;;;;;5114146;28;20058;-67
2022/05/05 11:34:39;;;;;;;7.30;2.90;;;38.30;43.90;;;;;;5113832;28;20105;-67
2022/05/05 11:37:07;;;;;;;3.25;2.55;;;38.40;44.40;;;;;;5095946;28;20039;-67
2022/05/05 11:39:35;;;;;;;8.02;2.40;;;38.60;42.20;;;;;;5114122;28;20032;-67
2022/05/05 11:42:07;;;;;;;7.97;2.60;;;38.50;43.00;;;;;;5113997;28;20448;-67
2022/05/05 11:44:40;;;;;;;10.93;2.92;;;;;;;;;;5113650;28;20111;-67
2022/05/05 11:47:24;;;;;;;3.92;2.15;;;38.70;43.70;;;;;;5113885;28;20073;-68
2022/05/05 11:49:52;;;;;;;7.25;2.38;;;;;;;;;;5114014;28;20408;-67
2022/05/05 11:52:23;;;;;;;4.80;2.33;;;;;;;;;;5113870;28;20055;-67
2022/05/05 11:54:50;;;;;;;3.97;2.67;;;;;;;;;;5113884;28;20024;-67
2022/05/05 11:57:32;;;;;;;5.18;2.42;;;;;;;;;;5113855;28;20111;-67
2022/05/05 12:02:42;;;;;;;8.30;2.65;;;40.40;41.40;;;;;;5113689;28;20050;-67
2022/05/05 12:05:09;;;;;;;8.43;2.20;;;40.60;40.60;;;;;;5113791;28;20516;-67
2022/05/05 12:07:35;;;;;;;4.05;2.50;;;40.80;40.50;;;;;;5113677;28;20100;-67
2022/05/05 12:10:08;;;;;;;2.30;2.13;;;;;;;;;;5113330;28;20016;-67
2022/05/05 12:12:37;;;;;;;3.42;2.50;;;41.20;40.30;;;;;;5113911;28;20027;-67
2022/05/05 12:15:07;;;;;;;6.93;2.83;;;40.80;39.30;;;;;;5113652;28;20058;-67
2022/05/05 12:17:41;;;;;;;4.07;2.20;;;39.30;38.20;;;;;;5113785;28;20028;-67
2022/05/05 12:20:09;;;;;;;3.45;2.28;;;39.90;40.20;;;;;;5113541;28;20565;-67
2022/05/05 12:22:38;;;;;;;3.10;2.58;;;40.30;38.60;;;;;;5113606;28;20456;-67
2022/05/05 12:25:06;;;;;;;4.32;2.30;;;39.70;38.10;;;;;;5113185;28;20426;-67
2022/05/05 12:27:34;;;;;;;2.67;2.05;;;40.10;38.30;;;;;;5113476;28;20024;-67
2022/05/05 12:30:01;;;;;;;3.72;2.10;;;40.50;38.90;;;;;;5113387;28;20120;-66
2022/05/05 12:32:27;;;;;;;4.60;2.00;;;41.10;38.60;;;;;;5113415;28;20034;-67
2022/05/05 12:35:10;;;;;;;3.67;1.90;;;41.00;38.10;;;;;;5113763;28;20534;-66
2022/05/05 12:37:37;;;;;;;5.32;2.30;;;40.00;36.70;;;;;;5113444;28;20028;-66
2022/05/05 12:40:06;;;;;;;4.75;1.95;;;39.40;37.20;;;;;;5113703;28;20052;-66
2022/05/05 12:42:40;;;;;;;5.80;2.88;;;40.20;36.50;;;;;;5117531;28;20031;-66
2022/05/05 12:45:14;;;;;;;3.40;2.10;;;40.20;37.70;;;;;;5117595;28;20073;-66
2022/05/05 12:47:42;;;;;;;5.50;2.35;;;39.80;38.10;;;;;;5117560;28;20020;-66
2022/05/05 12:50:34;;;;;;;6.53;2.50;;;39.80;38.40;;;;;;5098863;28;20028;-66
2022/05/05 13:01:33;;;;;;;3.22;2.45;;;40.70;39.20;;;;;;5116989;28;20050;-68
2022/05/05 13:04:08;;;;;;;5.05;2.28;;;41.00;37.80;;;;;;5117117;28;20028;-66
2022/05/05 13:06:35;;;;;;;6.93;2.08;;;41.90;38.60;;;;;;5117143;28;20448;-66
2022/05/05 13:09:01;;;;;;;4.65;2.47;;;41.80;36.60;;;;;;5116947;28;20031;-67
2022/05/05 13:11:27;;;;;;;3.97;2.63;;;40.50;36.50;;;;;;5116946;28;20102;-66
2022/05/05 13:13:53;;;;;;;3.45;2.78;;;40.00;38.80;;;;;;5116913;28;20106;-66
2022/05/05 13:16:19;;;;;;;6.90;2.38;;;39.20;37.80;;;;;;5116940;28;20112;-68
2022/05/05 13:18:45;;;;;;;4.15;2.45;;;;;;;;;;5117013;28;20024;-67
2022/05/05 13:21:11;;;;;;;2.53;2.33;;;38.90;39.60;;;;;;5116826;28;20082;-67
2022/05/05 13:23:37;;;;;;;3.92;2.45;;;38.30;37.20;;;;;;5116718;28;20063;-66
2022/05/05 13:26:04;;;;;;;5.38;2.63;;;39.70;38.30;;;;;;5116447;28;20079;-67
2022/05/05 13:28:31;;;;;;;8.32;2.63;;;39.80;38.70;;;;;;5116660;28;20028;-67
2022/05/05 13:30:58;;;;;;;4.38;2.42;;;39.10;38.90;;;;;;5116616;28;20023;-66
2022/05/05 13:33:24;;;;;;;2.95;2.20;;;38.20;39.20;;;;;;5116573;28;20103;-67
2022/05/05 13:35:51;;;;;;;3.25;2.38;;;37.30;40.10;;;;;;5116307;28;20058;-67
2022/05/05 13:38:18;;;;;;;6.53;2.28;;;36.90;41.00;;;;;;5116518;28;20019;-67
2022/05/05 13:40:44;;;;;;;4.80;2.30;;;36.30;39.80;;;;;;5116712;28;20034;-67
2022/05/05 13:43:10;;;;;;;2.40;2.20;;;37.20;40.50;;;;;;5116345;28;20106;-67
2022/05/05 13:45:36;;;;;;;6.50;2.80;;;36.90;39.70;;;;;;5116433;28;20027;-67
2022/05/05 13:48:03;;;;;;;4.05;2.40;;;36.40;41.60;;;;;;5116366;28;20028;-67
2022/05/05 13:50:28;;;;;;;2.55;2.30;;;35.90;40.90;;;;;;5116579;28;20030;-67